createdAt,value
2022-12-11T00:03:00.548Z,1.40
2022-12-11T00:08:02.194Z,1.30
2022-12-11T00:13:03.845Z,1.30
2022-12-11T00:18:05.282Z,1.30
2022-12-11T00:23:06.778Z,1.30
2022-12-11T00:28:08.284Z,1.30
2022-12-11T00:33:09.920Z,1.30
2022-12-11T00:38:11.546Z,1.30
2022-12-11T00:43:12.999Z,1.30
2022-12-11T00:48:14.466Z,1.30
2022-12-11T00:53:15.925Z,1.30
2022-12-11T00:58:17.545Z,1.30
2022-12-11T01:03:19.165Z,1.30
2022-12-11T01:08:20.734Z,1.30
2022-12-11T01:13:22.207Z,1.30
2022-12-11T01:18:23.654Z,1.30
2022-12-11T01:23:25.159Z,1.30
2022-12-11T01:28:26.578Z,1.30
2022-12-11T01:33:28.045Z,1.30
2022-12-11T01:38:29.555Z,1.30
2022-12-11T01:43:31.041Z,1.30
2022-12-11T01:48:33.454Z,1.30
2022-12-11T01:53:36.334Z,1.30
2022-12-11T01:58:38.040Z,1.20
2022-12-11T02:03:39.491Z,1.20
2022-12-11T02:08:40.953Z,1.20
2022-12-11T02:13:42.418Z,1.20
2022-12-11T02:18:43.879Z,1.20
2022-12-11T02:23:45.356Z,1.10
2022-12-11T02:28:46.773Z,1.10
2022-12-11T02:33:48.400Z,1.10
2022-12-11T02:38:49.903Z,1.00
2022-12-11T02:43:51.323Z,1.00
2022-12-11T02:48:52.747Z,1.10
2022-12-11T02:53:54.210Z,1.00
2022-12-11T02:58:58.689Z,1.00
2022-12-11T03:04:00.368Z,1.00
2022-12-11T03:09:01.997Z,1.00
2022-12-11T03:14:03.452Z,1.00
2022-12-11T03:19:04.898Z,0.90
2022-12-11T03:24:06.406Z,0.90
2022-12-11T03:29:07.906Z,0.80
2022-12-11T03:34:09.532Z,0.80
2022-12-11T03:39:11.024Z,0.80
2022-12-11T03:44:12.480Z,0.70
2022-12-11T03:49:22.124Z,0.70
2022-12-11T03:54:23.586Z,0.80
2022-12-11T03:59:25.140Z,0.70
2022-12-11T04:04:26.786Z,0.70
2022-12-11T04:09:28.238Z,0.70
2022-12-11T04:14:29.746Z,0.70
2022-12-11T04:19:31.243Z,0.70
2022-12-11T04:24:32.711Z,0.70
2022-12-11T04:29:34.198Z,0.70
2022-12-11T04:34:35.822Z,0.70
2022-12-11T04:39:37.269Z,0.70
2022-12-11T04:44:38.900Z,0.60
2022-12-11T04:49:40.321Z,0.60
2022-12-11T04:54:41.943Z,0.60
2022-12-11T04:59:43.566Z,0.60
2022-12-11T05:04:45.005Z,0.60
2022-12-11T05:09:46.431Z,0.50
2022-12-11T05:14:47.855Z,0.60
2022-12-11T05:19:49.338Z,0.50
2022-12-11T05:24:50.967Z,0.60
2022-12-11T05:29:57.741Z,0.50
2022-12-11T05:35:00.797Z,0.50
2022-12-11T05:40:02.268Z,0.50
2022-12-11T05:45:03.725Z,0.50
2022-12-11T05:50:05.234Z,0.50
2022-12-11T05:55:06.858Z,0.40
2022-12-11T06:00:08.351Z,0.50
2022-12-11T06:05:09.972Z,0.40
2022-12-11T06:10:11.615Z,0.40
2022-12-11T06:15:13.283Z,0.40
2022-12-11T06:20:14.968Z,0.40
2022-12-11T06:25:16.397Z,0.40
2022-12-11T06:30:17.811Z,0.40
2022-12-11T06:35:19.261Z,0.30
2022-12-11T06:40:20.783Z,0.40
2022-12-11T06:45:22.265Z,0.40
2022-12-11T06:50:23.894Z,0.40
2022-12-11T06:55:25.388Z,0.40
2022-12-11T07:00:26.844Z,0.40
2022-12-11T07:05:28.314Z,0.40
2022-12-11T07:10:29.917Z,0.30
2022-12-11T07:15:31.957Z,0.40
2022-12-11T07:20:34.379Z,0.40
2022-12-11T07:25:35.831Z,0.40
2022-12-11T07:30:37.335Z,0.40
2022-12-11T07:35:40.814Z,0.40
2022-12-11T07:40:42.373Z,0.50
2022-12-11T07:45:43.874Z,0.50
2022-12-11T07:50:45.373Z,0.40
2022-12-11T07:55:46.893Z,0.40
2022-12-11T08:00:48.702Z,0.30
2022-12-11T08:05:50.261Z,0.30
2022-12-11T08:10:51.741Z,0.30
2022-12-11T08:15:54.883Z,0.30
2022-12-11T08:20:56.469Z,0.30
2022-12-11T08:25:57.904Z,0.30
2022-12-11T08:30:59.425Z,0.40
2022-12-11T08:36:00.955Z,0.40
2022-12-11T08:41:02.500Z,0.40
2022-12-11T08:46:04.034Z,0.50
2022-12-11T08:51:05.671Z,0.50
2022-12-11T08:56:07.157Z,0.50
2022-12-11T09:01:08.824Z,0.50
2022-12-11T09:06:10.351Z,0.50
2022-12-11T09:11:11.976Z,0.50
2022-12-11T09:16:13.493Z,0.50
2022-12-11T09:21:14.994Z,0.50
2022-12-11T09:26:16.511Z,0.40
2022-12-11T09:31:18.065Z,0.30
2022-12-11T09:36:19.745Z,0.30
2022-12-11T09:41:21.312Z,0.30
2022-12-11T09:46:24.763Z,0.40
2022-12-11T09:51:26.620Z,0.40
2022-12-11T09:56:28.154Z,0.40
2022-12-11T10:01:29.644Z,0.40
2022-12-11T10:06:31.190Z,0.40
2022-12-11T10:11:32.705Z,0.40
2022-12-11T10:16:34.199Z,0.40
2022-12-11T10:21:35.675Z,0.50
2022-12-11T10:26:37.254Z,0.40
2022-12-11T10:31:38.719Z,0.50
2022-12-11T10:36:40.297Z,0.50
2022-12-11T10:41:41.782Z,0.60
2022-12-11T10:46:43.275Z,0.60
2022-12-11T10:51:44.760Z,0.50
2022-12-11T10:56:46.259Z,0.50
2022-12-11T11:01:47.714Z,0.50
2022-12-11T11:06:49.295Z,0.40
2022-12-11T11:11:50.770Z,0.40
2022-12-11T11:16:53.415Z,0.40
2022-12-11T11:21:54.904Z,0.40
2022-12-11T11:27:12.812Z,0.50
2022-12-11T11:32:15.231Z,0.50
2022-12-11T11:37:16.698Z,0.50
2022-12-11T11:42:18.333Z,0.50
2022-12-11T11:47:19.856Z,0.40
2022-12-11T11:52:21.347Z,0.40
2022-12-11T11:57:22.825Z,0.40
2022-12-11T12:02:24.323Z,0.30
2022-12-11T12:07:26.108Z,0.30
2022-12-11T12:12:32.409Z,0.40
2022-12-11T12:17:35.366Z,0.30
2022-12-11T12:22:36.841Z,0.40
2022-12-11T12:27:53.673Z,0.40
2022-12-11T12:32:55.224Z,0.40
2022-12-11T12:37:56.754Z,0.30
2022-12-11T12:42:58.236Z,0.30
2022-12-11T12:47:59.694Z,0.30
2022-12-11T12:53:01.150Z,0.30
2022-12-11T12:58:02.651Z,0.30
2022-12-11T13:03:04.086Z,0.20
2022-12-11T13:08:05.563Z,0.20
2022-12-11T13:13:07.152Z,0.20
2022-12-11T13:18:08.666Z,0.20
2022-12-11T13:23:10.130Z,0.20
2022-12-11T13:28:11.612Z,0.20
2022-12-11T13:33:13.297Z,0.20
2022-12-11T13:38:14.783Z,0.10
2022-12-11T13:43:16.204Z,0.10
2022-12-11T13:48:17.639Z,0.00
2022-12-11T13:53:19.067Z,0.00
2022-12-11T13:58:20.492Z,0.00
2022-12-11T14:03:21.966Z,-0.10
2022-12-11T14:08:23.450Z,-0.20
2022-12-11T14:13:24.899Z,-0.20
2022-12-11T14:18:26.354Z,-0.20
2022-12-11T14:23:27.994Z,-0.20
2022-12-11T14:28:29.482Z,-0.20
2022-12-11T14:33:30.920Z,-0.20
2022-12-11T14:38:32.370Z,-0.20
2022-12-11T14:43:33.836Z,-0.20
2022-12-11T14:48:35.302Z,-0.20
2022-12-11T14:53:36.731Z,-0.20
2022-12-11T14:58:38.183Z,-0.20
2022-12-11T15:03:39.615Z,-0.30
2022-12-11T15:08:41.038Z,-0.30
2022-12-11T15:13:42.509Z,-0.30
2022-12-11T15:18:43.956Z,-0.40
2022-12-11T15:23:45.513Z,-0.40
2022-12-11T15:28:46.989Z,-0.40
2022-12-11T15:33:48.451Z,-0.40
2022-12-11T15:38:49.924Z,-0.40
2022-12-11T15:43:56.755Z,-0.40
2022-12-11T15:48:59.951Z,-0.50
2022-12-11T15:54:01.448Z,-0.50
2022-12-11T15:59:02.970Z,-0.60
2022-12-11T16:04:05.423Z,-0.60
2022-12-11T16:09:07.065Z,-0.60
2022-12-11T16:14:08.530Z,-0.70
2022-12-11T16:19:09.961Z,-0.70
2022-12-11T16:24:11.384Z,-0.80
2022-12-11T16:29:12.831Z,-0.70
2022-12-11T16:34:14.548Z,-0.70
2022-12-11T16:39:16.197Z,-0.70
2022-12-11T16:44:17.712Z,-0.80
2022-12-11T16:49:19.220Z,-0.80
2022-12-11T16:54:20.692Z,-0.80
2022-12-11T16:59:22.145Z,-0.90
2022-12-11T17:04:23.642Z,-0.90
2022-12-11T17:09:25.097Z,-0.90
2022-12-11T17:14:26.686Z,-0.90
2022-12-11T17:19:28.194Z,-0.90
2022-12-11T17:24:29.719Z,-0.90
2022-12-11T17:29:31.163Z,-0.90
2022-12-11T17:34:37.847Z,-0.90
2022-12-11T17:39:40.128Z,-0.90
2022-12-11T17:44:41.650Z,-0.90
2022-12-11T17:49:50.381Z,-0.90
2022-12-11T17:54:51.871Z,-1.00
2022-12-11T17:59:53.377Z,-1.00
2022-12-11T18:04:54.875Z,-1.00
2022-12-11T18:09:56.371Z,-1.10
2022-12-11T18:14:57.914Z,-1.10
2022-12-11T18:19:59.380Z,-1.20
2022-12-11T18:25:02.794Z,-1.20
2022-12-11T18:30:07.904Z,-1.20
2022-12-11T18:35:09.759Z,-1.20
2022-12-11T18:40:11.766Z,-1.30
2022-12-11T18:45:13.573Z,-1.30
2022-12-11T18:50:15.277Z,-1.30
2022-12-11T18:55:20.147Z,-1.30
2022-12-11T19:00:21.812Z,-1.30
2022-12-11T19:05:32.628Z,-1.30
2022-12-11T19:10:34.246Z,-1.40
2022-12-11T19:15:35.801Z,-1.40
2022-12-11T19:20:48.926Z,-1.40
2022-12-11T19:25:51.558Z,-1.40
2022-12-11T19:30:53.053Z,-1.40
2022-12-11T19:35:54.525Z,-1.40
2022-12-11T19:40:56.024Z,-1.50
2022-12-11T19:45:57.563Z,-1.50
2022-12-11T19:50:59.080Z,-1.50
2022-12-11T19:56:00.598Z,-1.50
2022-12-11T20:01:02.154Z,-1.50
2022-12-11T20:06:03.761Z,-1.50
2022-12-11T20:11:05.345Z,-1.50
2022-12-11T20:16:06.862Z,-1.40
2022-12-11T20:21:08.430Z,-1.40
2022-12-11T20:26:10.226Z,-1.40
2022-12-11T20:31:18.040Z,-1.40
2022-12-11T20:36:21.376Z,-1.40
2022-12-11T20:41:22.921Z,-1.40
2022-12-11T20:46:24.359Z,-1.40
2022-12-11T20:51:27.577Z,-1.40
2022-12-11T20:56:29.075Z,-1.40
2022-12-11T21:01:30.548Z,-1.30
2022-12-11T21:06:32.052Z,-1.30
2022-12-11T21:16:53.611Z,-1.30
2022-12-11T21:21:55.122Z,-1.30
2022-12-11T21:26:57.156Z,-1.30
2022-12-11T21:31:58.646Z,-1.30
2022-12-11T21:37:00.291Z,-1.30
2022-12-11T21:42:01.748Z,-1.30
2022-12-11T21:47:03.270Z,-1.30
2022-12-11T21:52:04.767Z,-1.30
2022-12-11T21:57:06.295Z,-1.30
2022-12-11T22:02:07.968Z,-1.30
2022-12-11T22:07:09.475Z,-1.30
2022-12-11T22:12:11.019Z,-1.40
2022-12-11T22:17:12.863Z,-1.40
2022-12-11T22:22:14.467Z,-1.40
2022-12-11T22:27:20.456Z,-1.40
2022-12-11T22:32:26.645Z,-1.40
2022-12-11T22:48:25.846Z,-1.30
2022-12-11T22:53:27.310Z,-1.30
2022-12-11T22:58:28.769Z,-1.30
2022-12-11T23:03:30.285Z,-1.30
2022-12-11T23:08:31.965Z,-1.30
2022-12-11T23:13:33.513Z,-1.20
2022-12-11T23:18:34.984Z,-1.20
2022-12-11T23:23:36.410Z,-1.20
2022-12-11T23:28:37.831Z,-1.20
2022-12-11T23:33:39.288Z,-1.20
2022-12-11T23:38:40.711Z,-1.20
2022-12-11T23:43:42.130Z,-1.20
2022-12-11T23:48:46.859Z,-1.10
2022-12-11T23:53:48.286Z,-1.10
2022-12-11T23:58:49.706Z,-1.30
